Detailed Flight Report of Safa INALTEKIN ;
Number CXD159 
Departure Aerodrome LTFJ 
Arrival Aerodrome LTAI

Map generated by the Great Circle Mapper - copyright © Karl L. Swartz.

Pilot In Command CXD159 : Safa Inaltekin
Aircraft B738 / TC-KRD
Date Of Flight 2019-11-10
Departure Time 08:34 UTC
Arrival Time 09:39 UTC
Block Time 01:05
Distance 304 Nm.
Used Fuel 5,782 Lbs.
   
Detailed Flight Log [2019/11/10 08:44:00]
Flight IATA:C159
Pilot Number:159
Company ICAO:CXD
Aircraft Type:B738
Aircraft Registration:TC-KRD
Departing Airport: LTFJ
Destination Airport: LTAI
Alternate Airport:LTFG
Online: VATSIM
Route:EDAS1J EDASA UT338 TEKDO UT35 BABSA BABS1A
Flight Level:FL350
No pause
08:44 Zero fuel Weight: 124342 Lbs, Fuel Weight: 10103 Lbs
08:44 VATSIM:LTFJ 100820Z 14005KT 110V180 CAVOK 22/05 Q1016 NOSIG
08:44 VATSIM:LTAI 100820Z 36003KT 330V030 CAVOK 25/06 Q1018 NOSIG
08:49 Parking Brakes off
08:59 VR= 147 Knots
08:59 V2= 157 Knots
08:59 Take-off
08:59 Take off Weight: 133850 Lbs
08:59 Wind: 049º @ 020 Knots Heading: 060º
08:59 POS N40º 53´ 50´´ E029º 18´ 21´´
08:59 N11 100 N12 100
08:59 Gear Up: 160 Knots
08:59 Flaps:5º at 160 Knots
08:59 Flaps:2º at 176 Knots
09:00 Flaps:1º at 181 Knots
09:00 Flaps:Up at 200 Knots
09:14 Wind:268º@030 Knots Heading: 147º
Ground Speed: 458 Knots Altitude 34229 ft
09:14 TOC
09:14 Fuel Weight: 6376 Lb
09:21 TOD
09:21 Fuel Weight: 5785 Lb
09:29 Wind:280º@024 Knots Heading: 162º Ground Speed: 393 Knots Altitude 24629 ft
09:44 Wind:231º@003 Knots Heading: 185º Ground Speed: 274 Knots Altitude 2746 ft
09:45 Flaps:1º at 198 Knots
09:45 Flaps:2º at 191 Knots
09:45 Flaps:5º at 184 Knots
09:47 Gear Down: 168 Knots
09:47 Flaps:10º at 168 Knots
09:47 Flaps:15º at 155 Knots
09:47 Flaps:25º at 153 Knots
09:48 Flaps:30º at 152 Knots
09:48 Flaps:Full at 150 Knots
09:50 TouchDown:Rate -215 ft/min Speed: 129 Knots
09:50 VATSIM:LTAI 100920Z 01003KT 340V060 9999 FEW030 BKN200 26/06 Q1017 NOSIG
09:50 Land
09:50 Wind:173º@009 Knots
09:50 Heading: 005º
09:50 Flight Duration: 00:51
09:50 Landing Weight: 128805 Lbs
09:50 POS N36º 53´ 58´´ E030º 47´ 33´´
09:54 Parking brakes on
09:54 Block to
Block Duration: 01:05
09:54 Final Fuel: 4320 Lbls
09:54 Spent Fuel: 5782 Lbls
09:54 Flight Length: 304 NM
09:54 TOD Land Length: 156 NM

Text Link of Flight Log http://www.candanair.net/acars/logs/CXD15920191110084400.txt
   

[ Back ]